createdAt,value
2023-07-03T00:00:31.487Z,88.40
2023-07-03T00:02:58.196Z,88.60
2023-07-03T00:05:25.304Z,89.10
2023-07-03T00:07:52.869Z,89.00
2023-07-03T00:10:22.452Z,89.90
2023-07-03T00:12:49.470Z,90.20
2023-07-03T00:15:16.413Z,90.10
2023-07-03T00:17:45.911Z,90.10
2023-07-03T00:20:15.746Z,90.80
2023-07-03T00:22:43.062Z,91.00
2023-07-03T00:25:10.456Z,90.90
2023-07-03T00:27:37.506Z,91.40
2023-07-03T00:30:04.241Z,91.60
2023-07-03T00:32:31.326Z,91.10
2023-07-03T00:34:58.169Z,92.30
2023-07-03T00:37:25.104Z,92.50
2023-07-03T00:39:51.789Z,92.60
2023-07-03T00:42:18.752Z,92.90
2023-07-03T00:44:45.900Z,92.50
2023-07-03T00:47:13.045Z,93.20
2023-07-03T00:49:40.110Z,93.10
2023-07-03T00:52:06.800Z,93.60
2023-07-03T00:54:33.850Z,93.40
2023-07-03T00:57:00.569Z,93.90
2023-07-03T00:59:27.592Z,93.90
2023-07-03T01:01:54.668Z,94.10
2023-07-03T01:04:21.533Z,94.20
2023-07-03T01:06:48.321Z,94.60
2023-07-03T01:09:15.377Z,94.00
2023-07-03T01:11:42.431Z,94.30
2023-07-03T01:14:09.212Z,94.40
2023-07-03T01:16:36.277Z,94.70
2023-07-03T01:19:03.016Z,95.20
2023-07-03T01:21:29.733Z,95.20
2023-07-03T01:23:56.881Z,95.40
2023-07-03T01:26:23.880Z,95.70
2023-07-03T01:28:50.943Z,95.70
2023-07-03T01:31:17.641Z,95.70
2023-07-03T01:33:46.240Z,95.70
2023-07-03T01:36:13.832Z,95.90
2023-07-03T01:38:40.525Z,95.40
2023-07-03T01:41:07.516Z,96.50
2023-07-03T01:43:34.326Z,95.00
2023-07-03T01:46:01.189Z,96.70
2023-07-03T01:48:28.318Z,96.90
2023-07-03T01:50:55.045Z,97.20
2023-07-03T01:53:21.764Z,97.60
2023-07-03T01:58:16.191Z,98.00
2023-07-03T02:00:42.942Z,98.30
2023-07-03T02:03:11.748Z,98.50
2023-07-03T02:05:39.775Z,98.50
2023-07-03T02:08:06.596Z,98.40
2023-07-03T02:10:33.376Z,98.50
2023-07-03T02:13:00.286Z,98.90
2023-07-03T02:15:27.563Z,99.40
2023-07-03T02:17:55.646Z,99.30
2023-07-03T02:20:22.514Z,99.80
2023-07-03T02:22:49.228Z,99.90
2023-07-03T02:25:17.337Z,98.80
2023-07-03T02:27:44.554Z,99.90
2023-07-03T02:30:11.248Z,99.90
2023-07-03T02:32:38.070Z,99.90
2023-07-03T02:35:05.242Z,99.90
2023-07-03T02:37:31.910Z,99.90
2023-07-03T02:40:00.377Z,99.90
2023-07-03T02:42:27.794Z,99.90
2023-07-03T02:44:54.487Z,99.90
2023-07-03T02:47:21.446Z,99.90
2023-07-03T02:49:48.416Z,99.90
2023-07-03T02:52:15.288Z,99.90
2023-07-03T02:54:42.098Z,99.90
2023-07-03T02:57:08.942Z,99.90
2023-07-03T02:59:35.671Z,99.90
2023-07-03T03:02:02.463Z,99.90
2023-07-03T03:04:29.698Z,99.90
2023-07-03T03:06:56.828Z,99.90
2023-07-03T03:09:24.604Z,99.90
2023-07-03T03:11:51.611Z,99.90
2023-07-03T03:14:18.266Z,99.90
2023-07-03T03:16:45.225Z,99.90
2023-07-03T03:19:12.301Z,99.90
2023-07-03T03:21:39.541Z,99.90
2023-07-03T03:24:06.364Z,99.90
2023-07-03T03:26:33.627Z,99.90
2023-07-03T03:29:00.352Z,99.90
2023-07-03T03:31:27.122Z,99.90
2023-07-03T03:33:54.108Z,99.90
2023-07-03T03:36:21.808Z,99.90
2023-07-03T03:38:49.149Z,99.90
2023-07-03T03:41:16.152Z,99.90
2023-07-03T03:43:42.988Z,99.90
2023-07-03T03:46:09.741Z,99.90
2023-07-03T03:48:36.863Z,99.90
2023-07-03T03:51:04.131Z,99.90
2023-07-03T03:53:30.943Z,99.90
2023-07-03T03:55:57.688Z,99.90
2023-07-03T03:58:24.384Z,99.90
2023-07-03T04:00:52.283Z,99.90
2023-07-03T04:03:19.040Z,99.90
2023-07-03T04:05:45.740Z,99.90
2023-07-03T04:08:12.416Z,99.90
2023-07-03T04:10:39.783Z,99.90
2023-07-03T04:13:06.637Z,99.90
2023-07-03T04:15:33.411Z,99.90
2023-07-03T04:18:00.204Z,99.90
2023-07-03T04:20:28.148Z,99.90
2023-07-03T04:22:55.133Z,99.90
2023-07-03T04:25:22.812Z,99.90
2023-07-03T04:27:49.532Z,99.90
2023-07-03T04:30:17.004Z,99.90
2023-07-03T04:32:44.079Z,99.90
2023-07-03T04:35:10.957Z,99.90
2023-07-03T04:37:38.595Z,99.90
2023-07-03T04:40:06.328Z,99.90
2023-07-03T04:42:33.554Z,99.90
2023-07-03T04:45:03.361Z,99.90
2023-07-03T04:47:30.536Z,99.90
2023-07-03T04:49:59.657Z,99.90
2023-07-03T04:52:28.908Z,99.90
2023-07-03T04:54:56.111Z,99.90
2023-07-03T04:57:22.867Z,99.90
2023-07-03T04:59:50.034Z,99.90
2023-07-03T05:02:19.236Z,99.90
2023-07-03T05:04:46.637Z,99.90
2023-07-03T05:07:13.617Z,99.90
2023-07-03T05:09:40.389Z,99.90
2023-07-03T05:12:07.197Z,99.90
2023-07-03T05:14:36.313Z,99.90
2023-07-03T05:17:03.689Z,99.90
2023-07-03T05:19:30.445Z,99.90
2023-07-03T05:21:57.147Z,99.90
2023-07-03T05:24:23.892Z,99.90
2023-07-03T05:26:50.640Z,99.90
2023-07-03T05:29:17.397Z,99.90
2023-07-03T05:31:45.957Z,99.90
2023-07-03T05:34:12.857Z,99.90
2023-07-03T05:36:39.647Z,99.90
2023-07-03T05:39:06.595Z,99.90
2023-07-03T05:41:33.422Z,99.90
2023-07-03T05:44:00.220Z,99.90
2023-07-03T05:46:27.029Z,99.90
2023-07-03T05:48:53.839Z,99.90
2023-07-03T05:51:20.605Z,99.90
2023-07-03T05:53:47.710Z,99.90
2023-07-03T05:56:14.444Z,99.90
2023-07-03T05:58:41.191Z,99.90
2023-07-03T06:01:08.049Z,99.90
2023-07-03T06:03:35.118Z,99.90
2023-07-03T06:06:01.929Z,99.90
2023-07-03T06:08:28.672Z,99.90
2023-07-03T06:10:55.403Z,99.90
2023-07-03T06:13:22.592Z,99.90
2023-07-03T06:15:49.918Z,99.90
2023-07-03T06:18:16.842Z,99.90
2023-07-03T06:20:43.758Z,99.70
2023-07-03T06:23:10.528Z,99.50
2023-07-03T06:25:37.321Z,99.90
2023-07-03T06:28:04.384Z,99.90
2023-07-03T06:30:31.326Z,99.50
2023-07-03T06:32:58.465Z,99.80
2023-07-03T06:35:25.687Z,99.20
2023-07-03T06:37:53.216Z,99.60
2023-07-03T06:40:20.460Z,99.40
2023-07-03T06:42:47.222Z,99.00
2023-07-03T06:45:13.947Z,99.70
2023-07-03T06:47:40.761Z,99.40
2023-07-03T06:50:07.558Z,98.80
2023-07-03T06:52:34.676Z,97.90
2023-07-03T06:55:01.420Z,96.60
2023-07-03T06:57:28.429Z,96.80
2023-07-03T06:59:55.128Z,97.10
2023-07-03T07:02:22.071Z,96.00
2023-07-03T07:04:49.100Z,94.80
2023-07-03T07:07:16.186Z,95.20
2023-07-03T07:09:42.958Z,94.50
2023-07-03T07:12:09.655Z,93.90
2023-07-03T07:14:36.430Z,93.80
2023-07-03T07:17:03.206Z,93.60
2023-07-03T07:19:30.106Z,91.40
2023-07-03T07:21:56.996Z,93.20
2023-07-03T07:24:24.010Z,91.80
2023-07-03T07:26:51.639Z,91.90
2023-07-03T07:29:18.510Z,92.20
2023-07-03T07:31:45.253Z,91.30
2023-07-03T07:34:12.133Z,91.20
2023-07-03T07:36:39.970Z,91.60
2023-07-03T07:39:06.766Z,93.40
2023-07-03T07:41:33.548Z,90.00
2023-07-03T07:44:00.362Z,90.90
2023-07-03T07:46:27.731Z,90.40
2023-07-03T07:48:54.520Z,90.20
2023-07-03T07:51:21.283Z,89.60
2023-07-03T07:53:48.004Z,87.70
2023-07-03T07:56:15.415Z,88.90
2023-07-03T07:58:42.159Z,88.50
2023-07-03T08:01:09.133Z,88.80
2023-07-03T08:03:36.587Z,86.70
2023-07-03T08:06:04.125Z,87.00
2023-07-03T08:08:32.298Z,84.30
2023-07-03T08:10:59.426Z,84.50
2023-07-03T08:13:26.139Z,85.70
2023-07-03T08:15:53.442Z,84.50
2023-07-03T08:18:20.984Z,83.60
2023-07-03T08:20:48.083Z,83.70
2023-07-03T08:23:14.959Z,81.50
2023-07-03T08:25:41.664Z,81.20
2023-07-03T08:28:08.630Z,81.60
2023-07-03T08:30:35.635Z,79.90
2023-07-03T08:33:02.739Z,81.00
2023-07-03T08:37:59.617Z,79.60
2023-07-03T08:40:26.724Z,79.20
2023-07-03T08:42:54.563Z,79.10
2023-07-03T08:45:21.273Z,77.80
2023-07-03T08:47:48.163Z,77.30
2023-07-03T08:50:21.504Z,78.10
2023-07-03T08:52:55.037Z,78.10
2023-07-03T08:55:21.870Z,79.10
2023-07-03T08:57:48.598Z,79.70
2023-07-03T09:00:15.329Z,79.20
2023-07-03T09:02:42.581Z,79.90
2023-07-03T09:05:09.440Z,79.30
2023-07-03T09:07:36.211Z,80.20
2023-07-03T09:10:03.732Z,81.20
2023-07-03T09:12:30.517Z,81.30
2023-07-03T09:14:57.282Z,81.50
2023-07-03T09:17:24.228Z,81.50
2023-07-03T09:19:51.120Z,81.40
2023-07-03T09:22:17.981Z,82.00
2023-07-03T09:24:44.840Z,81.90
2023-07-03T09:27:11.786Z,81.50
2023-07-03T09:29:38.767Z,82.50
2023-07-03T09:32:05.501Z,81.80
2023-07-03T09:34:32.306Z,83.00
2023-07-03T09:37:04.583Z,83.30
2023-07-03T09:39:31.307Z,82.50
2023-07-03T09:41:58.102Z,82.70
2023-07-03T09:44:25.362Z,83.70
2023-07-03T09:46:52.171Z,82.60
2023-07-03T09:49:18.884Z,82.60
2023-07-03T09:51:45.635Z,83.70
2023-07-03T09:54:13.350Z,84.40
2023-07-03T09:56:40.360Z,83.60
2023-07-03T09:59:07.087Z,84.10
2023-07-03T10:04:04.410Z,85.30
2023-07-03T10:06:50.238Z,84.30
2023-07-03T10:11:46.651Z,84.00
2023-07-03T10:14:13.477Z,84.00
2023-07-03T10:16:40.230Z,82.80
2023-07-03T10:19:06.955Z,84.00
2023-07-03T10:21:34.955Z,83.70
2023-07-03T10:24:01.671Z,83.30
2023-07-03T10:26:29.606Z,84.70
2023-07-03T10:28:57.622Z,85.00
2023-07-03T10:31:24.413Z,85.20
2023-07-03T10:33:51.589Z,84.10
2023-07-03T10:36:18.309Z,84.20
2023-07-03T10:38:45.004Z,83.20
2023-07-03T10:41:11.711Z,84.40
2023-07-03T10:43:39.214Z,85.10
2023-07-03T10:46:05.925Z,85.40
2023-07-03T10:48:34.095Z,85.00
2023-07-03T10:51:01.434Z,83.80
2023-07-03T10:53:28.094Z,82.90
2023-07-03T10:55:54.876Z,82.10
2023-07-03T10:58:22.517Z,81.20
2023-07-03T11:00:49.231Z,81.90
2023-07-03T11:03:16.366Z,81.80
2023-07-03T11:05:43.195Z,81.60
2023-07-03T11:08:10.026Z,82.30
2023-07-03T11:10:36.711Z,81.20
2023-07-03T11:13:03.608Z,81.80
2023-07-03T11:15:30.310Z,82.10
2023-07-03T11:20:26.762Z,80.10
2023-07-03T11:22:53.583Z,80.50
2023-07-03T11:25:20.478Z,79.70
2023-07-03T11:30:17.707Z,79.60
2023-07-03T11:32:44.582Z,79.20
2023-07-03T11:40:10.664Z,77.40
2023-07-03T11:45:08.053Z,78.20
2023-07-03T11:47:34.838Z,78.60
2023-07-03T11:50:01.567Z,76.80
2023-07-03T11:52:28.497Z,77.50
2023-07-03T11:54:55.222Z,77.10
2023-07-03T11:57:21.866Z,76.80
2023-07-03T11:59:48.572Z,76.60
2023-07-03T12:02:15.558Z,75.40
2023-07-03T12:04:44.724Z,74.90
2023-07-03T12:07:13.442Z,73.80
2023-07-03T12:09:40.489Z,74.30
2023-07-03T12:12:08.606Z,73.00
2023-07-03T12:14:35.329Z,73.90
2023-07-03T12:17:02.307Z,70.50
2023-07-03T12:19:29.190Z,71.00
2023-07-03T12:21:55.919Z,70.20
2023-07-03T12:24:22.792Z,70.60
2023-07-03T12:26:49.506Z,71.20
2023-07-03T12:29:16.468Z,70.40
2023-07-03T12:31:43.154Z,70.00
2023-07-03T12:34:09.867Z,67.30
2023-07-03T12:36:40.193Z,67.30
2023-07-03T12:39:09.320Z,66.10
2023-07-03T12:41:36.051Z,66.20
2023-07-03T12:44:08.739Z,65.70
2023-07-03T12:46:35.957Z,65.10
2023-07-03T12:49:02.679Z,64.30
2023-07-03T12:51:29.357Z,64.90
2023-07-03T12:56:23.304Z,61.70
2023-07-03T12:58:50.024Z,62.60
2023-07-03T13:01:16.968Z,64.10
2023-07-03T13:03:43.794Z,65.30
2023-07-03T13:08:38.017Z,64.40
2023-07-03T13:11:06.683Z,65.20
2023-07-03T13:13:33.686Z,65.60
2023-07-03T13:16:00.721Z,66.90
2023-07-03T13:18:27.413Z,67.90
2023-07-03T13:20:54.118Z,68.90
2023-07-03T13:23:21.455Z,69.90
2023-07-03T13:25:48.302Z,69.90
2023-07-03T13:28:15.221Z,72.00
2023-07-03T13:30:42.158Z,72.30
2023-07-03T13:33:09.153Z,74.20
2023-07-03T13:35:36.018Z,75.30
2023-07-03T13:38:03.316Z,75.10
2023-07-03T13:40:30.039Z,75.40
2023-07-03T13:42:56.810Z,74.80
2023-07-03T13:45:23.576Z,74.50
2023-07-03T13:47:50.280Z,74.50
2023-07-03T13:50:17.116Z,73.70
2023-07-03T13:52:43.852Z,75.00
2023-07-03T13:55:10.604Z,74.40
2023-07-03T13:57:37.451Z,77.40
2023-07-03T14:00:04.252Z,84.70
2023-07-03T14:02:46.731Z,91.60
2023-07-03T14:05:14.736Z,94.10
2023-07-03T14:07:41.634Z,95.20
2023-07-03T14:10:08.503Z,99.90
2023-07-03T14:12:35.246Z,99.90
2023-07-03T14:15:01.939Z,99.90
2023-07-03T14:17:28.738Z,99.90
2023-07-03T14:19:55.677Z,99.90
2023-07-03T14:22:22.427Z,99.90
2023-07-03T14:24:49.744Z,99.90
2023-07-03T14:27:16.910Z,99.90
2023-07-03T14:29:43.607Z,99.90
2023-07-03T14:32:10.437Z,99.90
2023-07-03T14:34:37.225Z,99.90
2023-07-03T14:37:05.352Z,99.90
2023-07-03T14:39:32.148Z,99.90
2023-07-03T14:42:00.160Z,99.90
2023-07-03T14:44:26.863Z,99.90
2023-07-03T14:46:53.683Z,99.90
2023-07-03T14:49:20.907Z,99.90
2023-07-03T14:51:47.591Z,99.90
2023-07-03T14:54:14.381Z,99.90
2023-07-03T14:56:41.170Z,99.90
2023-07-03T14:59:07.924Z,99.90
2023-07-03T15:01:36.112Z,99.90
2023-07-03T15:04:03.113Z,99.90
2023-07-03T15:06:30.074Z,99.90
2023-07-03T15:08:56.835Z,99.90
2023-07-03T15:11:23.554Z,99.90
2023-07-03T15:13:50.343Z,99.90
2023-07-03T15:16:17.226Z,99.90
2023-07-03T15:18:44.021Z,99.90
2023-07-03T15:21:10.958Z,99.90
2023-07-03T15:23:37.720Z,99.90
2023-07-03T15:26:06.621Z,99.90
2023-07-03T15:28:33.617Z,99.90
2023-07-03T15:31:00.839Z,99.90
2023-07-03T15:33:27.527Z,99.90
2023-07-03T15:35:54.336Z,99.90
2023-07-03T15:38:21.336Z,99.90
2023-07-03T15:40:48.021Z,99.90
2023-07-03T15:43:15.119Z,99.90
2023-07-03T15:45:41.926Z,99.90
2023-07-03T15:48:08.780Z,99.90
2023-07-03T15:50:35.490Z,99.90
2023-07-03T15:53:02.648Z,99.90
2023-07-03T15:55:29.406Z,99.90
2023-07-03T15:57:56.094Z,99.50
2023-07-03T16:00:22.906Z,99.90
2023-07-03T16:02:49.712Z,99.60
2023-07-03T16:05:16.848Z,98.50
2023-07-03T16:07:43.573Z,98.30
2023-07-03T16:12:37.608Z,96.30
2023-07-03T16:15:04.775Z,95.50
2023-07-03T16:17:31.661Z,95.30
2023-07-03T16:19:58.544Z,95.30
2023-07-03T16:22:25.392Z,93.90
2023-07-03T16:24:52.519Z,93.70
2023-07-03T16:27:19.422Z,93.00
2023-07-03T16:29:46.180Z,93.30
2023-07-03T16:32:12.935Z,92.00
2023-07-03T16:34:39.598Z,92.00
2023-07-03T16:37:06.617Z,91.80
2023-07-03T16:39:34.422Z,91.10
2023-07-03T16:42:01.258Z,91.00
2023-07-03T16:44:28.127Z,90.80
2023-07-03T16:46:54.946Z,90.90
2023-07-03T16:49:21.668Z,90.60
2023-07-03T16:51:48.360Z,90.20
2023-07-03T16:54:15.117Z,88.40
2023-07-03T16:56:41.902Z,88.70
2023-07-03T16:59:09.306Z,88.40
2023-07-03T17:01:36.576Z,88.30
2023-07-03T17:04:03.488Z,89.00
2023-07-03T17:06:34.069Z,86.40
2023-07-03T17:11:28.176Z,83.10
2023-07-03T17:13:55.538Z,83.30
2023-07-03T17:16:23.022Z,83.70
2023-07-03T17:18:50.053Z,84.80
2023-07-03T17:21:16.852Z,82.40
2023-07-03T17:23:44.063Z,81.50
2023-07-03T17:26:10.795Z,79.80
2023-07-03T17:28:37.535Z,80.80
2023-07-03T17:31:04.343Z,76.70
2023-07-03T17:33:31.100Z,75.10
2023-07-03T17:35:59.322Z,71.50
2023-07-03T17:38:26.200Z,72.10
2023-07-03T17:40:53.085Z,71.80
2023-07-03T17:43:23.838Z,72.80
2023-07-03T17:45:51.412Z,71.60
2023-07-03T17:48:18.469Z,70.90
2023-07-03T17:50:46.630Z,72.20
2023-07-03T17:53:14.727Z,72.30
2023-07-03T17:55:42.103Z,72.50
2023-07-03T17:58:08.942Z,72.60
2023-07-03T18:00:35.666Z,72.80
2023-07-03T18:03:02.874Z,73.70
2023-07-03T18:05:30.676Z,73.60
2023-07-03T18:07:57.373Z,74.20
2023-07-03T18:10:24.916Z,73.80
2023-07-03T18:12:51.720Z,73.00
2023-07-03T18:15:18.464Z,72.90
2023-07-03T18:17:45.561Z,72.80
2023-07-03T18:20:12.380Z,74.30
2023-07-03T18:22:39.307Z,71.40
2023-07-03T18:25:06.917Z,70.90
2023-07-03T18:27:34.013Z,71.30
2023-07-03T18:30:00.785Z,71.40
2023-07-03T18:32:27.994Z,73.20
2023-07-03T18:34:54.717Z,73.60
2023-07-03T18:37:21.482Z,75.10
2023-07-03T18:39:48.220Z,74.80
2023-07-03T18:42:14.970Z,75.90
2023-07-03T18:44:41.666Z,77.30
2023-07-03T18:47:10.688Z,77.00
2023-07-03T18:49:37.411Z,77.10
2023-07-03T18:52:04.176Z,77.90
2023-07-03T18:54:30.925Z,77.50
2023-07-03T18:56:58.122Z,76.10
2023-07-03T18:59:25.369Z,75.40
2023-07-03T19:01:52.127Z,74.70
2023-07-03T19:04:18.923Z,73.70
2023-07-03T19:06:45.765Z,74.50
2023-07-03T19:09:13.112Z,75.40
2023-07-03T19:11:43.891Z,74.60
2023-07-03T19:14:10.675Z,74.50
2023-07-03T19:16:37.597Z,75.30
2023-07-03T19:19:04.441Z,75.50
2023-07-03T19:21:31.627Z,76.60
2023-07-03T19:24:01.828Z,77.50
2023-07-03T19:26:30.678Z,78.10
2023-07-03T19:28:57.481Z,78.60
2023-07-03T19:31:24.435Z,78.80
2023-07-03T19:33:52.121Z,79.00
2023-07-03T19:36:20.986Z,79.90
2023-07-03T19:38:47.841Z,79.60
2023-07-03T19:41:17.675Z,80.30
2023-07-03T19:43:44.544Z,79.80
2023-07-03T19:46:11.429Z,79.30
2023-07-03T19:48:38.517Z,80.00
2023-07-03T19:51:05.502Z,80.30
2023-07-03T19:53:32.494Z,80.30
2023-07-03T19:55:59.518Z,80.30
2023-07-03T19:58:26.719Z,80.50
2023-07-03T20:00:53.885Z,80.30
2023-07-03T20:03:20.903Z,80.40
2023-07-03T20:05:48.875Z,80.80
2023-07-03T20:08:15.715Z,81.00
2023-07-03T20:10:42.658Z,81.40
2023-07-03T20:13:09.433Z,80.30
2023-07-03T20:15:36.201Z,80.10
2023-07-03T20:18:03.517Z,80.00
2023-07-03T20:20:30.403Z,79.20
2023-07-03T20:22:57.193Z,79.20
2023-07-03T20:25:24.571Z,79.40
2023-07-03T20:27:53.476Z,78.90
2023-07-03T20:30:20.193Z,79.70
2023-07-03T20:32:49.275Z,79.80
2023-07-03T20:35:16.615Z,80.60
2023-07-03T20:37:43.815Z,81.30
2023-07-03T20:40:10.597Z,82.10
2023-07-03T20:42:37.398Z,82.70
2023-07-03T20:45:06.701Z,83.50
2023-07-03T20:47:33.988Z,84.40
2023-07-03T20:50:01.242Z,85.90
2023-07-03T20:52:28.693Z,86.40
2023-07-03T20:55:05.932Z,87.60
2023-07-03T20:57:34.598Z,88.20
2023-07-03T21:00:01.669Z,88.20
2023-07-03T21:02:29.434Z,87.70
2023-07-03T21:04:56.845Z,87.50
2023-07-03T21:07:23.833Z,87.20
2023-07-03T21:09:50.586Z,87.50
2023-07-03T21:12:17.322Z,88.10
2023-07-03T21:14:44.171Z,88.10
2023-07-03T21:17:12.565Z,87.50
2023-07-03T21:19:39.479Z,88.10
2023-07-03T21:22:06.232Z,87.80
2023-07-03T21:24:33.056Z,88.60
2023-07-03T21:26:59.944Z,88.80
2023-07-03T21:29:26.701Z,88.90
2023-07-03T21:31:53.535Z,88.90
2023-07-03T21:34:20.383Z,89.10
2023-07-03T21:36:47.512Z,88.90
2023-07-03T21:39:14.419Z,89.10
2023-07-03T21:41:43.307Z,89.70
2023-07-03T21:44:10.051Z,89.90
2023-07-03T21:46:36.974Z,90.00
2023-07-03T21:49:04.507Z,90.00
2023-07-03T21:51:31.324Z,90.10
2023-07-03T21:53:58.067Z,90.10
2023-07-03T21:56:24.886Z,90.30
2023-07-03T21:58:51.667Z,90.30
2023-07-03T22:01:18.498Z,90.20
2023-07-03T22:03:45.477Z,90.40
2023-07-03T22:06:12.364Z,90.40
2023-07-03T22:08:39.137Z,90.50
2023-07-03T22:11:06.110Z,90.30
2023-07-03T22:13:32.938Z,90.60
2023-07-03T22:16:00.357Z,90.70
2023-07-03T22:18:27.214Z,90.80
2023-07-03T22:20:54.193Z,91.00
2023-07-03T22:23:30.925Z,91.10
2023-07-03T22:28:26.925Z,91.10
2023-07-03T22:30:53.826Z,91.60
2023-07-03T22:33:20.592Z,91.60
2023-07-03T22:35:50.333Z,91.60
2023-07-03T22:38:17.317Z,91.80
2023-07-03T22:40:44.163Z,92.10
2023-07-03T22:43:10.921Z,92.00
2023-07-03T22:45:37.616Z,92.00
2023-07-03T22:48:04.503Z,91.80
2023-07-03T22:50:31.337Z,91.60
2023-07-03T22:52:58.899Z,91.60
2023-07-03T22:55:28.484Z,92.00
2023-07-03T22:57:55.211Z,91.80
2023-07-03T23:00:22.742Z,92.10
2023-07-03T23:02:50.095Z,92.20
2023-07-03T23:05:16.995Z,92.10
2023-07-03T23:07:43.807Z,92.00
2023-07-03T23:10:10.580Z,92.40
2023-07-03T23:12:37.449Z,92.40
2023-07-03T23:15:04.279Z,92.20
2023-07-03T23:17:31.169Z,92.60
2023-07-03T23:19:57.943Z,92.60
2023-07-03T23:22:24.785Z,92.70
2023-07-03T23:24:51.568Z,92.80
2023-07-03T23:27:21.023Z,92.80
2023-07-03T23:29:47.883Z,92.90
2023-07-03T23:32:14.702Z,93.20
2023-07-03T23:34:41.776Z,93.60
2023-07-03T23:37:11.631Z,93.80
2023-07-03T23:39:38.450Z,93.90
2023-07-03T23:42:06.945Z,94.40
2023-07-03T23:44:33.718Z,94.60
2023-07-03T23:47:00.559Z,94.70
2023-07-03T23:49:27.556Z,94.20
2023-07-03T23:51:54.448Z,94.90
2023-07-03T23:54:23.618Z,95.10
2023-07-03T23:56:50.446Z,95.20
2023-07-03T23:59:23.333Z,95.40
